Latest Weather Observations for Normanton

IDQ60801

Issued at 11:05 pm EST Sunday 23 November 2014 (issued every 30 minutes, with the page automatically refreshed every 10 minutes)

About weather observations | Map of weather stations | Latest weather observations for QLD | Other Formats
Station Details ID: 029063 Name: NORMANTON AIRPORT Lat: -17.69 Lon: 141.07 Height: 18.42 m
Data from the previous 72 hours. | See also: Recent months at Normanton
Date/Time
EST
Temp
°C
App
Temp
°C
Dew
Point
Rel
Hum
%
Delta-T
°C
Wind Press
QNH
hPa
Press
MSL
hPa
Rain
since 9 am
mm
Dir
 
Spd
km/h
Gust
km/h
Spd
kts
Gust
kts
23/11:00pm 28.9 34.1 25.7 83 2.3 SSE 9 17 5 9 1010.2 - 0.2
23/10:30pm 29.1 33.3 25.9 83 2.3 NW 15 19 8 10 1009.4 - 0.2
23/10:00pm 29.2 33.8 25.4 80 2.7 NNW 11 13 6 7 1009.4 - 0.2
23/09:30pm 29.3 33.5 25.3 79 2.8 NW 13 17 7 9 1009.3 - 0.2
23/09:00pm 29.4 33.8 25.6 80 2.7 NW 13 17 7 9 1009.0 1008.7 0.2
23/08:30pm 29.4 33.5 25.8 81 2.6 NW 15 19 8 10 1009.0 - 0.2
23/08:00pm 29.5 32.9 25.9 81 2.6 NW 19 24 10 13 1008.5 - 0.2
23/07:30pm 29.5 32.1 25.5 79 2.8 WNW 22 32 12 17 1008.4 - 0.2
23/07:00pm 29.7 32.1 25.2 77 3.2 WNW 22 30 12 16 1008.2 - 0.2
23/06:30pm 29.8 32.6 25.3 77 3.2 NW 20 28 11 15 1007.7 - 0.2
23/06:00pm 30.1 32.2 24.7 73 3.8 NW 22 30 12 16 1007.9 1007.7 0.2
23/05:30pm 30.4 32.4 24.5 70 4.1 NW 22 32 12 17 1008.2 - 0.2
23/05:00pm 30.9 32.7 24.3 68 4.6 NW 22 30 12 16 1008.0 - 0.2
23/04:30pm 31.2 32.0 23.8 64 5.1 NW 26 33 14 18 1007.4 - 0.2
23/04:00pm 31.5 33.0 24.4 66 5.0 NW 24 32 13 17 1007.1 - 0.2
23/03:30pm 31.5 33.9 24.6 67 4.8 NNW 20 26 11 14 1007.8 - 0.2
23/03:00pm 31.3 33.1 24.2 66 5.0 NW 22 24 12 13 1008.4 1008.3 0.2
23/02:30pm 31.3 33.2 24.4 66 4.8 NW 22 30 12 16 1008.8 - 0.2
23/02:00pm 30.9 33.4 25.3 72 4.0 NW 22 32 12 17 1009.4 - 0.2
23/01:30pm 31.6 34.3 25.7 71 4.2 NW 22 28 12 15 1009.3 - 0.2
23/01:00pm 31.5 33.1 26.3 74 3.7 NNW 30 39 16 21 1009.7 - 0.2
23/12:30pm 34.6 35.2 25.7 60 6.4 NNW 33 41 18 22 1010.2 - 0.0
23/12:15pm 34.1 34.8 24.9 58 6.5 N 30 43 16 23 1010.3 - 0.0
23/12:00pm 36.5 38.9 23.0 45 9.4 N 15 22 8 12 1010.5 1010.4 0.0
23/11:30am 36.3 39.2 22.5 45 9.5 NNE 11 20 6 11 1011.0 - 0.0
23/11:00am 36.1 40.2 23.3 47 8.9 NE 7 13 4 7 1011.4 - 0.0
23/10:30am 33.8 36.9 23.5 55 7.2 N 13 19 7 10 1011.8 - 0.0
23/10:00am 34.1 37.6 23.5 54 7.4 N 11 17 6 9 1011.9 - 0.0
23/09:30am 33.6 37.5 24.2 58 6.6 N 11 19 6 10 1012.1 - 0.0
23/09:00am 32.8 36.8 25.1 64 5.5 N 13 19 7 10 1012.1 1011.9 0.0
23/08:30am 32.2 36.0 25.3 67 4.9 N 15 20 8 11 1011.9 - 0.0
23/08:00am 31.2 35.3 25.8 73 3.8 N 15 20 8 11 1012.0 - 0.0
23/07:30am 30.5 34.7 26.0 77 3.2 N 15 20 8 11 1011.9 - 0.0
23/07:00am 29.5 34.3 26.3 83 2.3 N 13 20 7 11 1011.4 - 0.0
23/06:30am 28.7 33.6 26.9 90 1.3 N 15 24 8 13 1011.1 - 0.0
23/06:00am 28.4 34.1 27.0 92 1.0 N 11 15 6 8 1010.6 1010.2 0.0
23/05:30am 28.3 34.2 26.7 91 1.1 NNE 9 11 5 6 1010.3 - 0.0
23/05:00am 28.2 33.7 26.2 89 1.4 NE 9 11 5 6 1010.1 - 0.0
23/04:30am 28.2 33.8 25.8 87 1.7 ENE 7 13 4 7 1009.8 - 0.0
23/04:00am 28.4 33.3 25.2 83 2.2 ENE 9 15 5 8 1009.2 - 0.0
23/03:30am 28.5 32.9 25.1 82 2.4 ENE 11 17 6 9 1008.9 - 0.0
23/03:00am 28.9 34.2 24.9 79 2.8 ENE 6 13 3 7 1008.7 1008.3 0.0
23/02:30am 29.3 35.5 24.6 76 3.3 CALM 0 4 0 2 1008.3 - 0.0
23/02:00am 29.5 33.4 24.8 76 3.3 W 13 19 7 10 1008.0 - 0.0
23/01:30am 29.5 33.2 23.9 72 3.9 WNW 11 15 6 8 1008.3 - 0.0
23/01:00am 29.2 32.9 23.9 73 3.7 NW 11 13 6 7 1008.9 - 0.0
23/12:30am 29.4 33.1 23.3 69 4.2 NNW 9 13 5 7 1009.5 - 0.0
23/12:00am 29.6 33.6 23.8 71 4.0 WSW 9 9 5 5 1010.0 1009.9 0.0
 
Date/Time
EST
Temp
°C
App
Temp
°C
Dew
Point
Rel
Hum
%
Delta-T
°C
Wind Press
QNH
hPa
Press
MSL
hPa
Rain
since 9 am
mm
Dir
 
Spd
km/h
Gust
km/h
Spd
kts
Gust
kts
22/11:30pm 29.8 35.3 24.0 71 4.0 NW 2 7 1 4 1010.5 - 0.0
22/11:00pm 29.3 33.6 23.3 70 4.1 ESE 6 11 3 6 1011.0 - 0.0
22/10:30pm 29.1 32.0 23.1 70 4.1 SSE 13 20 7 11 1010.6 - 0.0
22/10:00pm 30.2 34.9 25.0 73 3.7 NW 9 15 5 8 1009.8 - 0.0
22/09:30pm 29.5 32.4 22.5 66 4.8 NNW 11 13 6 7 1009.5 - 0.0
22/09:00pm 28.8 31.6 22.3 68 4.4 SSE 11 15 6 8 1009.5 1009.4 0.0
22/08:30pm 30.3 32.6 21.4 59 6.0 WNW 11 15 6 8 1008.7 - 0.0
22/08:00pm 29.9 31.5 20.7 57 6.1 WNW 13 15 7 8 1008.9 - 0.0
22/07:30pm 30.8 31.8 19.5 51 7.4 WNW 13 17 7 9 1009.1 - 0.0
22/07:00pm 30.5 32.8 19.5 51 7.2 SSE 6 13 3 7 1008.4 - 0.0
22/06:30pm 30.2 29.2 18.0 48 7.8 SE 20 30 11 16 1009.2 - 0.0
22/06:00pm 33.5 36.8 23.8 57 6.8 NNE 13 15 7 8 1009.2 1008.7 0.0
22/05:30pm 34.0 35.8 24.3 57 6.8 NNW 22 28 12 15 1007.8 - 0.0
22/05:00pm 34.4 35.3 24.0 54 7.3 NNW 26 32 14 17 1007.5 - 0.0
22/04:30pm 34.5 35.3 24.4 55 7.1 N 28 35 15 19 1007.6 - 0.0
22/04:00pm 35.2 36.4 24.5 54 7.6 NNW 26 39 14 21 1007.6 - 0.0
22/03:30pm 35.6 36.6 24.2 51 8.0 NW 26 33 14 18 1007.8 - 0.0
22/03:00pm 34.7 36.2 23.7 52 7.7 NW 22 35 12 19 1008.2 1008.2 0.0
22/02:30pm 35.7 37.5 24.3 51 8.0 NW 22 32 12 17 1008.5 - 0.0
22/02:00pm 36.3 37.7 24.2 49 8.5 NNW 24 35 13 19 1009.2 - 0.0
22/01:30pm 36.5 37.6 24.4 50 8.6 NNW 26 35 14 19 1009.6 - 0.0
22/01:00pm 35.9 36.7 23.8 49 8.5 NNW 26 41 14 22 1009.8 - 0.0
22/12:30pm 36.1 36.2 19.1 36 11.2 SSW 17 30 9 16 1009.9 - 0.0
22/12:00pm 35.9 36.4 19.3 37 11.0 WSW 15 24 8 13 1010.7 1010.7 0.0
22/11:30am 35.5 35.9 19.0 37 10.9 SW 15 24 8 13 1011.2 - 0.0
22/11:00am 35.3 35.4 19.2 38 10.6 S 17 24 9 13 1011.5 - 0.0
22/10:30am 35.1 35.9 18.2 36 11.0 SSE 11 17 6 9 1011.9 - 0.0
22/10:00am 34.5 36.2 18.1 37 10.7 SSE 6 15 3 8 1012.0 - 0.0
22/09:30am 33.4 35.2 18.3 40 9.8 ESE 6 9 3 5 1011.8 - 0.0
22/09:00am 32.5 33.5 18.7 44 9.0 N 11 17 6 9 1011.5 1011.2 0.0
22/08:30am 31.5 31.6 19.2 48 8.0 N 17 24 9 13 1010.9 - 0.0
22/08:00am 30.0 30.2 19.4 53 6.9 N 17 24 9 13 1010.4 - 0.0
22/07:30am 28.5 29.2 19.7 59 5.7 N 15 22 8 12 1010.0 - 0.0
22/07:00am 27.5 28.7 19.8 63 5.0 N 13 19 7 10 1009.8 - 0.0
22/06:30am 26.9 28.1 20.0 66 4.5 N 13 19 7 10 1009.5 - 0.0
22/06:00am 26.7 28.5 20.3 68 4.2 N 11 13 6 7 1009.2 1008.9 0.0
22/05:30am 26.8 28.5 20.2 67 4.3 NW 11 15 6 8 1009.2 - 0.0
22/05:00am 26.8 29.0 20.4 68 4.2 NNW 9 11 5 6 1009.5 - 0.0
22/04:30am 26.7 28.7 20.8 70 3.9 N 11 17 6 9 1009.8 - 0.0
22/04:00am 26.7 28.4 21.0 71 3.8 N 13 17 7 9 1009.6 - 0.0
22/03:30am 26.8 30.3 21.1 71 3.8 W 4 7 2 4 1009.7 - 0.0
22/03:00am 26.7 29.3 21.2 72 3.7 SSW 9 9 5 5 1010.0 1009.8 0.0
22/02:30am 26.7 28.9 21.2 72 3.6 ENE 11 17 6 9 1010.4 - 0.0
22/02:00am 26.7 29.3 21.2 72 3.6 SSE 9 13 5 7 1010.8 - 0.0
22/01:30am 26.9 27.9 21.0 70 3.9 S 17 22 9 12 1011.1 - 0.0
22/01:00am 27.2 28.1 20.8 68 4.2 SSE 17 22 9 12 1011.6 - 0.0
22/12:30am 27.7 27.8 20.0 63 5.0 S 19 26 10 14 1011.7 - 0.0
22/12:00am 28.2 25.6 20.0 61 5.4 SSE 33 39 18 21 1011.8 1011.7 0.0
 
Date/Time
EST
Temp
°C
App
Temp
°C
Dew
Point
Rel
Hum
%
Delta-T
°C
Wind Press
QNH
hPa
Press
MSL
hPa
Rain
since 9 am
mm
Dir
 
Spd
km/h
Gust
km/h
Spd
kts
Gust
kts
21/11:41pm 30.0 26.4 19.4 53 6.9 S 37 56 20 30 1011.6 - 0.0
21/11:30pm 30.6 26.6 20.2 53 6.9 S 41 54 22 29 1011.7 - 0.0
21/11:23pm 30.4 29.6 23.3 66 4.9 S 33 54 18 29 1012.0 - 0.0
21/11:15pm 29.5 30.6 25.0 77 3.2 S 28 43 15 23 1012.0 - 0.0
21/11:00pm 29.3 33.7 25.1 78 3.0 WNW 11 15 6 8 1010.2 - 0.0
21/10:30pm 29.4 33.7 24.9 77 3.2 W 11 15 6 8 1010.1 - 0.0
21/10:00pm 29.5 32.6 24.8 76 3.3 WNW 17 20 9 11 1009.5 - 0.0
21/09:30pm 29.7 32.4 24.8 75 3.4 NW 19 22 10 12 1008.9 - 0.0
21/09:00pm 30.1 33.7 24.3 71 4.0 WNW 13 15 7 8 1009.2 1009.0 0.0
21/08:30pm 30.3 33.1 23.7 68 4.6 WNW 15 20 8 11 1009.0 - 0.0
21/08:00pm 30.7 33.5 23.6 66 4.9 W 15 20 8 11 1008.6 - 0.0
21/07:30pm 31.1 33.0 23.5 64 5.3 WNW 19 24 10 13 1008.2 - 0.0
21/07:00pm 31.7 33.0 22.7 59 6.2 WNW 20 26 11 14 1007.8 - 0.0
21/06:30pm 32.1 32.4 22.2 56 6.7 NW 24 32 13 17 1007.4 - 0.0
21/06:00pm 32.8 32.7 22.3 54 7.2 NW 26 33 14 18 1007.2 1007.0 0.0
21/05:30pm 34.1 34.2 22.5 50 8.0 NW 26 33 14 18 1007.1 - 0.0
21/05:00pm 34.0 34.2 22.7 51 7.8 NW 26 32 14 17 1007.0 - 0.0
21/04:30pm 35.2 36.0 23.2 49 8.3 NW 24 33 13 18 1007.1 - 0.0
21/04:00pm 35.6 36.0 22.5 46 9.0 NW 24 39 13 21 1007.3 - 0.0
21/03:30pm 35.8 36.7 22.7 46 9.1 N 22 28 12 15 1007.8 - 0.0
21/03:00pm 35.9 37.1 22.5 46 9.3 NW 20 35 11 19 1008.1 1008.0 0.0
21/02:30pm 36.2 36.7 22.7 45 9.3 NW 24 35 13 19 1008.8 - 0.0
21/02:00pm 35.3 36.0 22.3 47 8.9 NW 22 32 12 17 1009.3 - 0.0
21/01:30pm 35.8 37.1 22.4 46 9.2 NW 19 30 10 16 1009.8 - 0.0
21/01:00pm 35.9 36.3 22.5 46 9.2 NNW 24 30 13 16 1010.3 - 0.0
21/12:30pm 35.2 36.0 21.8 45 9.2 WNW 20 32 11 17 1010.9 - 0.0
21/12:00pm 35.0 35.3 21.6 45 9.1 NNW 22 28 12 15 1011.3 1011.3 0.0
21/11:30am 33.9 34.3 21.7 49 8.3 NNW 22 30 12 16 1012.0 - 0.0
21/11:00am 33.6 34.6 22.1 51 7.9 NNW 20 33 11 18 1012.3 - 0.0
21/10:30am 33.5 35.2 22.3 52 7.7 N 17 28 9 15 1012.8 - 0.0
21/10:00am 32.0 33.6 22.1 55 6.7 N 17 24 9 13 1013.1 - 0.0
21/09:30am 31.5 32.6 21.9 56 6.5 N 19 26 10 14 1013.1 - 0.0
21/09:00am 31.0 32.7 23.1 63 5.4 N 19 30 10 16 1012.9 1012.6 0.0
21/08:30am 29.6 32.6 24.0 72 3.9 NNE 15 24 8 13 1012.9 - 0.0
21/08:00am 29.5 33.4 24.8 76 3.3 NNE 13 20 7 11 1012.8 - 0.0
21/07:30am 28.9 33.6 25.5 82 2.4 N 11 20 6 11 1012.4 - 0.0
21/07:00am 28.5 32.8 25.5 84 2.1 N 13 19 7 10 1011.8 - 0.0
21/06:30am 28.0 32.7 25.6 87 1.7 N 11 15 6 8 1011.3 - 0.0
21/06:00am 27.7 32.1 25.7 89 1.4 N 13 19 7 10 1010.5 1010.2 0.0
21/05:30am 27.7 32.1 25.7 89 1.4 N 13 19 7 10 1010.0 - 0.0
21/05:00am 28.0 32.5 25.8 88 1.6 N 13 19 7 10 1009.7 - 0.0
21/04:30am 28.0 32.5 25.8 88 1.6 N 13 20 7 11 1009.4 - 0.0
21/04:00am 27.9 32.6 26.1 90 1.3 N 13 24 7 13 1009.1 - 0.0
21/03:30am 27.7 31.8 25.7 89 1.4 N 15 24 8 13 1008.2 - 0.0
21/03:00am 27.6 32.6 25.4 88 1.5 N 9 11 5 6 1007.8 1007.7 0.0
21/02:30am 27.9 32.6 25.5 87 1.7 N 11 15 6 8 1008.1 - 0.0
21/02:00am 27.9 32.3 25.1 85 2.0 N 11 13 6 7 1008.1 - 0.0
21/01:30am 28.2 32.8 24.8 82 2.4 N 9 11 5 6 1008.5 - 0.0
21/01:00am 28.6 33.8 24.8 80 2.7 NW 6 7 3 4 1008.5 - 0.0
21/12:30am 28.8 33.4 24.8 79 2.8 NW 9 11 5 6 1008.7 - 0.0
21/12:00am 29.0 34.0 24.8 78 2.9 NW 7 9 4 5 1009.1 1009.0 0.0
 
Date/Time
EST
Temp
°C
App
Temp
°C
Dew
Point
Rel
Hum
%
Delta-T
°C
Wind Press
QNH
hPa
Press
MSL
hPa
Rain
since 9 am
mm
Dir
 
Spd
km/h
Gust
km/h
Spd
kts
Gust
kts
20/11:30pm 29.0 33.5 24.6 77 3.1 NW 9 11 5 6 1009.4 - 0.0

Other Formats:

Comma delimited format used in spreadsheet applications
http://www.bom.gov.au/fwo/IDQ60801/IDQ60801.94266.axf

JavaScript Object Notation format (JSON) in row-major order
http://www.bom.gov.au/fwo/IDQ60801/IDQ60801.94266.json